createdAt,value
2023-04-12T00:01:06.067Z,99397.13
2023-04-12T00:03:37.776Z,99389.28
2023-04-12T00:06:07.355Z,99375.03
2023-04-12T00:08:35.403Z,99380.72
2023-04-12T00:11:03.739Z,99386.44
2023-04-12T00:13:31.781Z,99373.41
2023-04-12T00:15:59.871Z,99379.97
2023-04-12T00:18:27.453Z,99378.91
2023-04-12T00:20:58.073Z,99390.78
2023-04-12T00:23:26.492Z,99393.41
2023-04-12T00:25:54.088Z,99389.31
2023-04-12T00:28:21.769Z,99395.09
2023-04-12T00:30:50.739Z,99395.31
2023-04-12T00:33:18.026Z,99382.16
2023-04-12T00:35:45.833Z,99390.56
2023-04-12T00:38:19.724Z,99375.37
2023-04-12T00:41:07.313Z,99372.25
2023-04-12T00:43:49.896Z,99375.56
2023-04-12T00:46:32.693Z,99365.59
2023-04-12T00:49:41.508Z,99368.41
2023-04-12T00:52:15.809Z,99367.69
2023-04-12T00:54:56.717Z,99364.69
2023-04-12T00:57:48.381Z,99371.97
2023-04-12T01:00:53.013Z,99373.25
2023-04-12T01:03:23.422Z,99372.81
2023-04-12T01:06:10.630Z,99363.22
2023-04-12T01:08:40.942Z,99368.97
2023-04-12T01:11:33.618Z,99369.03
2023-04-12T01:14:04.605Z,99358.69
2023-04-12T01:16:51.506Z,99365.66
2023-04-12T01:19:31.791Z,99365.69
2023-04-12T01:22:07.541Z,99365.56
2023-04-12T01:25:16.447Z,99377.69
2023-04-12T01:27:46.824Z,99379.06
2023-04-12T01:30:15.975Z,99370.38
2023-04-12T01:32:47.927Z,99376.81
2023-04-12T01:35:19.666Z,99374.63
2023-04-12T01:37:47.149Z,99366.50
2023-04-12T01:40:18.015Z,99363.69
2023-04-12T01:42:46.971Z,99364.28
2023-04-12T01:45:14.621Z,99365.81
2023-04-12T01:47:42.907Z,99364.19
2023-04-12T01:50:12.126Z,99373.47
2023-04-12T01:53:18.684Z,99375.69
2023-04-12T01:56:09.997Z,99370.97
2023-04-12T01:58:57.421Z,99378.84
2023-04-12T02:02:12.421Z,99372.09
2023-04-12T02:04:41.934Z,99370.22
2023-04-12T02:07:09.755Z,99371.13
2023-04-12T02:09:38.734Z,99369.37
2023-04-12T02:12:06.971Z,99369.78
2023-04-12T02:14:35.878Z,99365.22
2023-04-12T02:17:04.757Z,99374.25
2023-04-12T02:19:32.839Z,99370.78
2023-04-12T02:22:02.373Z,99371.34
2023-04-12T02:24:33.804Z,99377.00
2023-04-12T02:27:02.831Z,99369.75
2023-04-12T02:29:31.462Z,99369.56
2023-04-12T02:32:01.505Z,99373.69
2023-04-12T02:34:34.258Z,99362.69
2023-04-12T02:37:09.522Z,99359.25
2023-04-12T02:39:41.641Z,99364.16
2023-04-12T02:42:09.698Z,99372.91
2023-04-12T02:44:38.017Z,99360.09
2023-04-12T02:47:07.980Z,99364.72
2023-04-12T02:49:39.068Z,99358.16
2023-04-12T02:52:21.352Z,99359.66
2023-04-12T02:55:22.145Z,99355.03
2023-04-12T02:58:19.079Z,99353.91
2023-04-12T03:01:15.533Z,99356.84
2023-04-12T03:03:58.699Z,99348.53
2023-04-12T03:06:33.570Z,99351.03
2023-04-12T03:09:05.675Z,99355.50
2023-04-12T03:11:34.928Z,99350.50
2023-04-12T03:14:02.675Z,99348.41
2023-04-12T03:16:32.433Z,99344.06
2023-04-12T03:19:02.958Z,99336.63
2023-04-12T03:21:32.554Z,99346.81
2023-04-12T03:24:14.467Z,99339.66
2023-04-12T03:27:09.720Z,99332.31
2023-04-12T03:30:00.641Z,99332.91
2023-04-12T03:32:52.625Z,99334.62
2023-04-12T03:35:45.494Z,99328.00
2023-04-12T03:38:36.561Z,99327.34
2023-04-12T03:41:10.943Z,99322.47
2023-04-12T03:43:38.770Z,99317.34
2023-04-12T03:46:07.197Z,99319.34
2023-04-12T03:48:36.457Z,99327.66
2023-04-12T03:51:08.077Z,99325.84
2023-04-12T03:53:37.077Z,99320.38
2023-04-12T03:56:07.897Z,99329.22
2023-04-12T03:58:36.323Z,99317.28
2023-04-12T04:01:09.394Z,99325.94
2023-04-12T04:03:38.141Z,99326.31
2023-04-12T04:06:07.037Z,99317.41
2023-04-12T04:11:16.969Z,99328.22
2023-04-12T04:13:47.239Z,99327.78
2023-04-12T04:16:18.341Z,99320.84
2023-04-12T04:18:46.602Z,99322.28
2023-04-12T04:21:16.177Z,99321.41
2023-04-12T04:23:45.725Z,99321.69
2023-04-12T04:26:15.796Z,99322.72
2023-04-12T04:28:45.612Z,99323.97
2023-04-12T04:31:14.312Z,99320.47
2023-04-12T04:33:43.422Z,99315.91
2023-04-12T04:36:16.552Z,99315.53
2023-04-12T04:38:46.154Z,99306.41
2023-04-12T04:41:23.693Z,99307.97
2023-04-12T04:43:54.462Z,99315.37
2023-04-12T04:46:24.933Z,99305.19
2023-04-12T04:48:55.651Z,99314.81
2023-04-12T04:51:33.180Z,99314.44
2023-04-12T04:54:03.841Z,99320.31
2023-04-12T04:56:32.810Z,99315.44
2023-04-12T04:59:09.893Z,99308.66
2023-04-12T05:01:43.851Z,99305.34
2023-04-12T05:04:17.055Z,99299.63
2023-04-12T05:06:47.218Z,99298.25
2023-04-12T05:09:16.769Z,99301.66
2023-04-12T05:11:47.939Z,99300.19
2023-04-12T05:14:17.444Z,99304.50
2023-04-12T05:16:46.963Z,99306.28
2023-04-12T05:19:22.031Z,99302.94
2023-04-12T05:21:51.264Z,99310.13
2023-04-12T05:24:19.953Z,99316.88
2023-04-12T05:26:51.040Z,99311.81
2023-04-12T05:29:19.296Z,99308.72
2023-04-12T05:31:47.389Z,99317.06
2023-04-12T05:36:54.734Z,99313.25
2023-04-12T05:39:24.307Z,99309.50
2023-04-12T05:41:53.826Z,99308.50
2023-04-12T05:44:21.266Z,99309.09
2023-04-12T05:46:49.052Z,99298.28
2023-04-12T05:49:36.805Z,99302.59
2023-04-12T05:52:13.739Z,99300.16
2023-04-12T05:54:43.029Z,99282.34
2023-04-12T05:57:12.824Z,99294.09
2023-04-12T05:59:46.671Z,99291.44
2023-04-12T06:02:21.069Z,99298.25
2023-04-12T06:04:51.604Z,99284.59
2023-04-12T06:07:21.332Z,99294.50
2023-04-12T06:09:50.198Z,99301.59
2023-04-12T06:12:32.988Z,99298.16
2023-04-12T06:15:15.740Z,99293.69
2023-04-12T06:17:43.902Z,99302.13
2023-04-12T06:20:12.358Z,99298.91
2023-04-12T06:22:41.804Z,99296.34
2023-04-12T06:25:10.807Z,99294.88
2023-04-12T06:27:40.904Z,99304.25
2023-04-12T06:30:10.688Z,99315.37
2023-04-12T06:35:14.769Z,99318.78
2023-04-12T06:38:06.821Z,99322.91
2023-04-12T06:40:48.692Z,99315.78
2023-04-12T06:43:37.745Z,99317.97
2023-04-12T06:46:29.834Z,99325.09
2023-04-12T06:49:11.978Z,99317.84
2023-04-12T06:52:04.685Z,99314.44
2023-04-12T06:54:52.267Z,99311.22
2023-04-12T06:57:34.830Z,99311.44
2023-04-12T07:00:26.150Z,99311.31
2023-04-12T07:03:10.479Z,99305.91
2023-04-12T07:05:55.424Z,99302.94
2023-04-12T07:11:24.782Z,99303.47
2023-04-12T07:14:15.777Z,99302.31
2023-04-12T07:16:55.805Z,99307.56
2023-04-12T07:19:39.642Z,99303.03
2023-04-12T07:22:23.253Z,99311.53
2023-04-12T07:25:10.695Z,99299.87
2023-04-12T07:28:03.640Z,99293.44
2023-04-12T07:30:47.447Z,99288.47
2023-04-12T07:36:16.831Z,99285.06
2023-04-12T07:39:14.442Z,99285.25
2023-04-12T07:41:54.634Z,99273.56
2023-04-12T07:44:49.745Z,99286.50
2023-04-12T07:47:35.869Z,99280.25
2023-04-12T07:50:18.491Z,99288.38
2023-04-12T07:53:24.698Z,99274.47
2023-04-12T07:56:18.246Z,99267.31
2023-04-12T07:59:01.230Z,99272.31
2023-04-12T08:01:56.441Z,99274.25
2023-04-12T08:04:39.523Z,99282.56
2023-04-12T08:07:32.577Z,99277.56
2023-04-12T08:10:12.780Z,99276.31
2023-04-12T08:13:00.837Z,99275.13
2023-04-12T08:15:56.907Z,99270.66
2023-04-12T08:18:40.962Z,99283.81
2023-04-12T08:21:36.294Z,99287.44
2023-04-12T08:24:21.826Z,99291.28
2023-04-12T08:27:14.100Z,99280.84
2023-04-12T08:29:53.936Z,99276.19
2023-04-12T08:32:45.806Z,99287.72
2023-04-12T08:35:32.793Z,99283.81
2023-04-12T08:38:41.542Z,99276.72
2023-04-12T08:41:05.905Z,99276.37
2023-04-12T08:43:57.806Z,99277.13
2023-04-12T08:46:40.043Z,99270.84
2023-04-12T08:49:25.894Z,99269.97
2023-04-12T08:52:17.901Z,99265.19
2023-04-12T08:55:03.289Z,99268.28
2023-04-12T08:57:56.866Z,99263.63
2023-04-12T09:00:37.225Z,99261.50
2023-04-12T09:03:33.353Z,99265.06
2023-04-12T09:06:12.871Z,99255.81
2023-04-12T09:08:56.359Z,99257.00
2023-04-12T09:11:51.228Z,99256.97
2023-04-12T09:14:30.962Z,99272.50
2023-04-12T09:17:26.569Z,99262.50
2023-04-12T09:20:19.022Z,99256.72
2023-04-12T09:23:05.816Z,99261.28
2023-04-12T09:25:57.648Z,99251.94
2023-04-12T09:28:46.471Z,99247.66
2023-04-12T09:31:40.589Z,99254.28
2023-04-12T09:34:31.136Z,99246.00
2023-04-12T09:37:26.520Z,99238.59
2023-04-12T09:40:07.589Z,99238.91
2023-04-12T09:43:03.981Z,99229.72
2023-04-12T09:45:46.661Z,99226.66
2023-04-12T09:48:54.521Z,99222.63
2023-04-12T09:51:37.865Z,99218.56
2023-04-12T09:54:23.771Z,99225.69
2023-04-12T09:57:27.156Z,99221.72
2023-04-12T10:00:18.268Z,99220.03
2023-04-12T10:03:08.389Z,99209.81
2023-04-12T10:06:05.723Z,99210.50
2023-04-12T10:08:44.745Z,99212.06
2023-04-12T10:11:27.334Z,99206.91
2023-04-12T10:14:18.897Z,99211.34
2023-04-12T10:16:59.819Z,99209.16
2023-04-12T10:19:43.286Z,99202.53
2023-04-12T10:22:36.261Z,99209.66
2023-04-12T10:25:22.838Z,99200.69
2023-04-12T10:28:21.927Z,99192.66
2023-04-12T10:31:31.772Z,99198.56
2023-04-12T10:34:15.881Z,99205.41
2023-04-12T10:36:59.499Z,99203.97
2023-04-12T10:39:54.753Z,99196.47
2023-04-12T10:42:35.757Z,99190.12
2023-04-12T10:45:24.910Z,99185.50
2023-04-12T10:48:07.188Z,99180.41
2023-04-12T10:51:25.705Z,99168.69
2023-04-12T10:54:17.404Z,99183.31
2023-04-12T10:57:10.084Z,99168.66
2023-04-12T10:59:57.801Z,99159.69
2023-04-12T11:03:06.558Z,99158.03
2023-04-12T11:06:16.149Z,99157.47
2023-04-12T11:08:46.155Z,99163.88
2023-04-12T11:11:34.949Z,99158.06
2023-04-12T11:14:22.079Z,99165.50
2023-04-12T11:19:54.650Z,99142.00
2023-04-12T11:22:46.539Z,99145.63
2023-04-12T11:25:29.151Z,99136.00
2023-04-12T11:28:25.202Z,99138.09
2023-04-12T11:30:59.126Z,99154.09
2023-04-12T11:36:34.304Z,99134.22
2023-04-12T11:39:14.035Z,99139.19
2023-04-12T11:42:12.636Z,99144.88
2023-04-12T11:44:58.434Z,99144.28
2023-04-12T11:47:44.860Z,99150.47
2023-04-12T11:50:28.986Z,99131.87
2023-04-12T11:53:27.800Z,99127.50
2023-04-12T11:56:08.904Z,99131.47
2023-04-12T11:58:53.187Z,99133.00
2023-04-12T12:01:50.842Z,99128.94
2023-04-12T12:04:35.224Z,99121.50
2023-04-12T12:10:01.785Z,99107.81
2023-04-12T12:12:52.670Z,99111.47
2023-04-12T12:15:25.186Z,99104.03
2023-04-12T12:18:09.824Z,99101.47
2023-04-12T12:20:53.094Z,99092.59
2023-04-12T12:23:39.665Z,99086.63
2023-04-12T12:30:11.733Z,99085.69
2023-04-12T12:33:07.141Z,99079.66
2023-04-12T12:35:59.266Z,99078.03
2023-04-12T12:38:54.764Z,99070.56
2023-04-12T12:41:39.373Z,99073.97
2023-04-12T12:44:29.282Z,99068.88
2023-04-12T12:47:14.618Z,99073.56
2023-04-12T12:49:59.094Z,99064.75
2023-04-12T12:52:43.103Z,99061.34
2023-04-12T12:58:11.889Z,99060.56
2023-04-12T13:00:48.063Z,99066.78
2023-04-12T13:03:33.102Z,99055.81
2023-04-12T13:06:17.607Z,99052.97
2023-04-12T13:08:57.778Z,99058.88
2023-04-12T13:11:53.872Z,99047.63
2023-04-12T13:14:45.323Z,99046.31
2023-04-12T13:17:16.669Z,99052.69
2023-04-12T13:19:57.737Z,99046.75
2023-04-12T13:22:41.867Z,99041.25
2023-04-12T13:28:20.921Z,99032.97
2023-04-12T13:31:04.015Z,99034.38
2023-04-12T13:33:46.969Z,99031.28
2023-04-12T13:36:31.202Z,99031.16
2023-04-12T13:39:26.264Z,99024.38
2023-04-12T13:42:09.909Z,99006.34
2023-04-12T13:44:52.835Z,99019.88
2023-04-12T13:47:37.127Z,99019.72
2023-04-12T13:50:31.495Z,99005.78
2023-04-12T13:53:14.696Z,99010.84
2023-04-12T13:56:10.965Z,99018.06
2023-04-12T13:58:53.109Z,99012.97
2023-04-12T14:01:46.138Z,99012.13
2023-04-12T14:04:31.222Z,99015.81
2023-04-12T14:07:43.581Z,99008.47
2023-04-12T14:10:29.207Z,99005.75
2023-04-12T14:13:28.983Z,99009.87
2023-04-12T14:16:53.797Z,99011.00
2023-04-12T14:19:42.627Z,99006.06
2023-04-12T14:22:26.709Z,99006.69
2023-04-12T14:25:18.910Z,99004.09
2023-04-12T14:28:16.832Z,98994.66
2023-04-12T14:30:57.185Z,98998.72
2023-04-12T14:33:49.043Z,98999.44
2023-04-12T14:36:34.700Z,99000.31
2023-04-12T14:39:36.655Z,98999.16
2023-04-12T14:42:05.843Z,98993.38
2023-04-12T14:44:52.698Z,98996.69
2023-04-12T14:47:39.030Z,98985.13
2023-04-12T14:50:38.756Z,98997.59
2023-04-12T14:53:28.299Z,98990.41
2023-04-12T14:56:23.773Z,98998.19
2023-04-12T14:59:14.078Z,98993.25
2023-04-12T15:01:58.553Z,98999.16
2023-04-12T15:04:53.818Z,98999.31
2023-04-12T15:07:46.237Z,99005.81
2023-04-12T15:10:33.040Z,99006.22
2023-04-12T15:13:33.748Z,99003.53
2023-04-12T15:16:16.019Z,99003.69
2023-04-12T15:19:18.901Z,99006.78
2023-04-12T15:21:55.626Z,99009.84
2023-04-12T15:24:51.393Z,99002.56
2023-04-12T15:27:47.697Z,99001.84
2023-04-12T15:30:31.722Z,99004.53
2023-04-12T15:33:27.276Z,99000.44
2023-04-12T15:36:11.605Z,99006.50
2023-04-12T15:41:47.466Z,99011.00
2023-04-12T15:44:34.239Z,99010.16
2023-04-12T15:47:29.709Z,99004.78
2023-04-12T15:50:29.020Z,99008.31
2023-04-12T15:53:21.672Z,98998.34
2023-04-12T15:56:26.682Z,99004.78
2023-04-12T15:59:18.791Z,99006.47
2023-04-12T16:02:15.724Z,99001.13
2023-04-12T16:05:17.133Z,99003.69
2023-04-12T16:10:27.031Z,99002.97
2023-04-12T16:12:56.660Z,99006.12
2023-04-12T16:15:27.054Z,99006.12
2023-04-12T16:20:34.776Z,98995.91
2023-04-12T16:23:17.639Z,98992.56
2023-04-12T16:28:29.675Z,98992.56
2023-04-12T16:31:00.770Z,98985.94
2023-04-12T16:33:45.168Z,98983.81
2023-04-12T16:36:16.719Z,98992.56
2023-04-12T16:38:45.606Z,98992.84
2023-04-12T16:41:20.604Z,98986.34
2023-04-12T16:46:34.002Z,98982.94
2023-04-12T16:49:08.302Z,98975.03
2023-04-12T16:51:55.816Z,98984.84
2023-04-12T16:54:31.763Z,98983.53
2023-04-12T16:57:08.802Z,98983.34
2023-04-12T17:02:24.993Z,98984.47
2023-04-12T17:04:57.044Z,98980.94
2023-04-12T17:07:27.234Z,98981.09
2023-04-12T17:10:01.177Z,98980.31
2023-04-12T17:12:36.725Z,98977.44
2023-04-12T17:15:04.536Z,98976.38
2023-04-12T17:17:36.814Z,98973.25
2023-04-12T17:23:03.643Z,98985.03
2023-04-12T17:25:45.281Z,98987.25
2023-04-12T17:28:44.820Z,98987.03
2023-04-12T17:34:18.860Z,98987.56
2023-04-12T17:37:07.246Z,98992.84
2023-04-12T17:39:54.540Z,98987.84
2023-04-12T17:42:48.775Z,98986.63
2023-04-12T17:45:32.941Z,98987.63
2023-04-12T17:48:32.893Z,98995.47
2023-04-12T17:51:21.930Z,98988.09
2023-04-12T17:54:17.127Z,98988.09
2023-04-12T17:57:20.750Z,99002.09
2023-04-12T18:00:16.015Z,98998.16
2023-04-12T18:03:10.861Z,99003.81
2023-04-12T18:06:11.889Z,98992.16
2023-04-12T18:08:53.054Z,98998.03
2023-04-12T18:11:47.030Z,99008.66
2023-04-12T18:14:41.760Z,98999.72
2023-04-12T18:23:02.784Z,98994.87
2023-04-12T18:25:46.813Z,99000.44
2023-04-12T18:28:23.899Z,99004.34
2023-04-12T18:30:58.157Z,98996.38
2023-04-12T18:33:33.024Z,99001.06
2023-04-12T18:36:12.953Z,99000.38
2023-04-12T18:38:49.792Z,99002.00
2023-04-12T18:41:27.579Z,99004.00
2023-04-12T18:44:05.165Z,99009.84
2023-04-12T18:46:37.039Z,99019.94
2023-04-12T18:49:12.770Z,99012.16
2023-04-12T18:51:48.128Z,99013.47
2023-04-12T18:54:27.257Z,99022.69
2023-04-12T18:59:38.815Z,99021.19
2023-04-12T19:04:57.837Z,99026.72
2023-04-12T19:10:05.190Z,99022.19
2023-04-12T19:12:41.019Z,99024.31
2023-04-12T19:15:11.700Z,99025.37
2023-04-12T19:17:44.780Z,99030.28
2023-04-12T19:20:28.721Z,99029.50
2023-04-12T19:25:35.625Z,99031.00
2023-04-12T19:28:11.692Z,99027.56
2023-04-12T19:33:27.791Z,99028.84
2023-04-12T19:36:01.640Z,99031.41
2023-04-12T19:38:32.812Z,99031.97
2023-04-12T19:41:07.448Z,99034.25
2023-04-12T19:43:42.673Z,99028.88
2023-04-12T19:46:18.830Z,99028.97
2023-04-12T19:48:48.926Z,99028.25
2023-04-12T19:51:24.272Z,99032.25
2023-04-12T19:56:36.193Z,99026.16
2023-04-12T19:59:06.860Z,99028.13
2023-04-12T20:01:49.017Z,99023.72
2023-04-12T20:04:35.906Z,99019.38
2023-04-12T20:07:06.696Z,99007.72
2023-04-12T20:09:37.653Z,99014.09
2023-04-12T20:14:44.758Z,99010.34
2023-04-12T20:17:13.050Z,99014.12
2023-04-12T20:19:47.132Z,99007.72
2023-04-12T20:22:16.721Z,99009.31
2023-04-12T20:24:59.499Z,99006.50
2023-04-12T20:27:42.631Z,99000.63
2023-04-12T20:30:11.686Z,99005.38
2023-04-12T20:32:42.087Z,99010.75
2023-04-12T20:37:52.004Z,99006.78
2023-04-12T20:40:23.356Z,99016.53
2023-04-12T20:42:56.906Z,99018.94
2023-04-12T20:45:31.302Z,99010.28
2023-04-12T20:48:09.956Z,99006.53
2023-04-12T20:50:41.081Z,98995.03
2023-04-12T20:53:15.238Z,98995.78
2023-04-12T20:55:56.590Z,98997.75
2023-04-12T20:58:24.597Z,98989.00
2023-04-12T21:00:57.097Z,98994.53
2023-04-12T21:06:25.823Z,98991.62
2023-04-12T21:08:53.960Z,98986.50
2023-04-12T21:11:23.178Z,98987.69
2023-04-12T21:13:54.751Z,98985.16
2023-04-12T21:16:26.622Z,98989.88
2023-04-12T21:18:56.901Z,98991.53
2023-04-12T21:21:27.447Z,98985.50
2023-04-12T21:24:05.835Z,98994.56
2023-04-12T21:26:33.897Z,98987.09
2023-04-12T21:29:02.745Z,98984.34
2023-04-12T21:31:30.889Z,98989.63
2023-04-12T21:34:07.320Z,98987.28
2023-04-12T21:36:35.006Z,98980.50
2023-04-12T21:39:04.444Z,98975.50
2023-04-12T21:41:31.731Z,98964.53
2023-04-12T21:44:00.114Z,98975.28
2023-04-12T21:46:28.901Z,98966.22
2023-04-12T21:48:57.288Z,98969.56
2023-04-12T21:51:26.850Z,98967.03
2023-04-12T21:53:54.642Z,98968.12
2023-04-12T21:59:36.517Z,98957.31
2023-04-12T22:02:04.085Z,98957.41
2023-04-12T22:04:34.365Z,98957.84
2023-04-12T22:07:06.813Z,98949.44
2023-04-12T22:09:35.815Z,98956.44
2023-04-12T22:12:10.057Z,98952.97
2023-04-12T22:14:46.846Z,98953.47
2023-04-12T22:17:14.987Z,98951.88
2023-04-12T22:19:43.061Z,98951.56
2023-04-12T22:22:12.218Z,98947.53
2023-04-12T22:24:39.989Z,98941.75
2023-04-12T22:27:09.395Z,98950.38
2023-04-12T22:29:38.027Z,98947.66
2023-04-12T22:32:05.668Z,98943.44
2023-04-12T22:34:33.997Z,98938.28
2023-04-12T22:37:03.508Z,98932.66
2023-04-12T22:39:35.434Z,98936.41
2023-04-12T22:42:04.251Z,98947.91
2023-04-12T22:44:38.256Z,98938.03
2023-04-12T22:47:08.608Z,98939.47
2023-04-12T22:49:44.244Z,98939.38
2023-04-12T22:52:12.186Z,98936.81
2023-04-12T22:54:40.339Z,98938.28
2023-04-12T22:57:17.809Z,98943.56
2023-04-12T22:59:45.617Z,98936.50
2023-04-12T23:02:14.929Z,98942.78
2023-04-12T23:04:44.208Z,98941.75
2023-04-12T23:07:19.102Z,98939.88
2023-04-12T23:09:47.391Z,98934.94
2023-04-12T23:12:15.333Z,98942.06
2023-04-12T23:14:43.487Z,98937.19
2023-04-12T23:17:11.092Z,98933.87
2023-04-12T23:19:38.995Z,98936.38
2023-04-12T23:22:06.372Z,98929.91
2023-04-12T23:24:37.120Z,98926.81
2023-04-12T23:27:05.959Z,98929.28
2023-04-12T23:29:35.184Z,98929.38
2023-04-12T23:32:03.449Z,98921.69
2023-04-12T23:34:31.329Z,98916.44
2023-04-12T23:37:00.160Z,98915.84
2023-04-12T23:39:28.739Z,98906.94
2023-04-12T23:41:56.452Z,98908.59
2023-04-12T23:44:25.534Z,98903.28
2023-04-12T23:46:53.334Z,98909.97
2023-04-12T23:49:21.041Z,98904.41
2023-04-12T23:51:48.361Z,98904.59
2023-04-12T23:54:17.321Z,98908.84
2023-04-12T23:56:45.941Z,98892.47
2023-04-12T23:59:13.221Z,98894.69
